Time;durP1;ratioP1;P1;durP2;ratioP2;P2;SDS_P1;SDS_P2;PMS_P1;PMS_P2;Temp;Humidity;BMP_temperature;BMP_pressure;BME280_temperature;BME280_humidity;BME280_pressure;Samples;Min_cycle;Max_cycle;Signal;HPM_P1;HPM_P2
2023/10/16 00:01:10;;;;;;;0.93;0.77;;;;;;;;;;5108827;28;20225;-61
2023/10/16 00:03:41;;;;;;;1.77;0.90;;;;;;;;;;5116610;28;20208;-61
2023/10/16 00:06:11;;;;;;;1.37;1.10;;;;;;;;;;5121763;28;20280;-61
2023/10/16 00:08:47;;;;;;;2.87;0.90;;;;;;;;;;5107820;28;20294;-61
2023/10/16 00:11:18;;;;;;;1.30;0.90;;;;;;;;;;5101016;28;20229;-61
2023/10/16 00:13:47;;;;;;;1.57;0.90;;;;;;;;;;5100505;28;20197;-64
2023/10/16 00:16:16;;;;;;;1.20;0.80;;;;;;;;;;5100875;28;20207;-63
2023/10/16 00:18:45;;;;;;;2.40;1.03;;;;;;;;;;5100594;28;20229;-61
2023/10/16 00:21:14;;;;;;;2.03;0.90;;;;;;;;;;5105151;28;20243;-60
2023/10/16 00:23:42;;;;;;;1.77;1.10;;;;;;;;;;5121306;27;20209;-60
2023/10/16 00:26:12;;;;;;;1.60;1.20;;;;;;;;;;5110812;28;20721;-61
2023/10/16 00:28:44;;;;;;;2.40;1.27;;;;;;;;;;5099690;28;20243;-62
2023/10/16 00:31:14;;;;;;;3.20;1.00;;;;;;;;;;5100531;28;20253;-61
2023/10/16 00:33:48;;;;;;;1.23;0.80;;;;;;;;;;5100206;28;20201;-60
2023/10/16 00:36:16;;;;;;;2.53;1.40;;;;;;;;;;5100380;28;20209;-60
2023/10/16 00:38:49;;;;;;;1.27;1.17;;;;;;;;;;5100554;28;20221;-61
2023/10/16 00:41:23;;;;;;;1.17;1.00;;;;;;;;;;5109502;28;20278;-61
2023/10/16 00:43:52;;;;;;;1.93;0.80;;;;;;;;;;5114051;28;20243;-64
2023/10/16 00:46:29;;;;;;;1.50;0.73;;;;;;;;;;5103198;28;20283;-61
2023/10/16 00:49:00;;;;;;;0.87;0.70;;;;;;;;;;5111034;28;20194;-61
2023/10/16 00:51:29;;;;;;;1.20;0.70;;;;;;;;;;5112289;28;20273;-61
2023/10/16 00:54:16;;;;;;;1.17;1.07;;;;;;;;;;5102402;28;20227;-61
2023/10/16 00:56:44;;;;;;;1.70;0.93;;;;;;;;;;5106594;28;20640;-61
2023/10/16 00:59:16;;;;;;;2.53;0.83;;;;;;;;;;5104293;28;20309;-61
2023/10/16 01:01:44;;;;;;;1.93;1.00;;;;;;;;;;5105666;28;20229;-61
2023/10/16 01:04:13;;;;;;;3.00;1.10;;;;;;;;;;5115765;28;20209;-61
2023/10/16 01:06:44;;;;;;;1.60;1.10;;;;;;;;;;5120313;28;20228;-60
2023/10/16 01:09:22;;;;;;;1.67;1.10;;;;;;;;;;5102344;28;20253;-61
2023/10/16 01:11:51;;;;;;;1.30;0.70;;;;;;;;;;5099855;28;20233;-62
2023/10/16 01:14:20;;;;;;;1.60;1.00;;;;;;;;;;5113329;28;20307;-60
2023/10/16 01:16:50;;;;;;;1.80;0.93;;;;;;;;;;5119132;28;20193;-60
2023/10/16 01:19:20;;;;;;;2.97;0.97;;;;;;;;;;5118923;28;20294;-59
2023/10/16 01:21:48;;;;;;;0.83;0.83;;;;;;;;;;5102646;28;20274;-60
2023/10/16 01:24:19;;;;;;;1.37;0.93;;;;;;;;;;5114971;28;20291;-62
2023/10/16 01:26:50;;;;;;;1.20;0.87;;;;;;;;;;5099524;28;20209;-60
2023/10/16 01:29:20;;;;;;;1.70;0.67;;;;;;;;;;5099643;28;20677;-61
2023/10/16 01:31:52;;;;;;;1.60;0.97;;;;;;;;;;5099393;28;20268;-61
2023/10/16 01:34:22;;;;;;;0.83;0.83;;;;;;;;;;5098987;28;20236;-61
2023/10/16 01:36:51;;;;;;;2.93;0.90;;;;;;;;;;5099593;28;20231;-64
2023/10/16 01:42:11;;;;;;;2.93;0.93;;;;;;;;;;5097681;28;20202;-61
2023/10/16 01:44:41;;;;;;;0.67;0.67;;;;;;;;;;5108306;28;20212;-61
2023/10/16 01:47:13;;;;;;;1.93;0.87;;;;;;;;;;5114688;28;20202;-61
2023/10/16 01:49:42;;;;;;;1.30;0.90;;;;;;;;;;5098614;28;20208;-61
2023/10/16 01:52:11;;;;;;;1.03;0.80;;;;;;;;;;5098604;28;20207;-61
2023/10/16 01:54:42;;;;;;;1.07;1.00;;;;;;;;;;5110548;28;20201;-61
2023/10/16 01:57:12;;;;;;;2.07;1.10;;;;;;;;;;5117967;28;20208;-61
2023/10/16 01:59:41;;;;;;;0.97;0.90;;;;;;;;;;5107524;28;20252;-61
2023/10/16 02:02:11;;;;;;;1.97;1.00;;;;;;;;;;5104505;28;20297;-61
2023/10/16 02:04:39;;;;;;;1.20;0.87;;;;;;;;;;5110354;28;20207;-61
2023/10/16 02:07:08;;;;;;;1.10;1.00;;;;;;;;;;5098763;28;20233;-61
2023/10/16 02:09:38;;;;;;;0.73;0.73;;;;;;;;;;5100989;28;20221;-60
2023/10/16 02:12:10;;;;;;;1.73;1.10;;;;;;;;;;5098581;28;20672;-61
2023/10/16 02:14:40;;;;;;;2.87;0.90;;;;;;;;;;5098477;28;20272;-60
2023/10/16 02:17:14;;;;;;;2.53;0.90;;;;;;;;;;5098742;28;20209;-61
2023/10/16 02:19:45;;;;;;;2.00;1.13;;;;;;;;;;5099271;28;20221;-61
2023/10/16 02:22:16;;;;;;;2.80;1.00;;;;;;;;;;5118922;28;20671;-60
2023/10/16 02:24:46;;;;;;;0.80;0.80;;;;;;;;;;5116397;27;20208;-61
2023/10/16 02:27:18;;;;;;;1.17;1.00;;;;;;;;;;5098348;28;20206;-60
2023/10/16 02:29:49;;;;;;;3.63;1.50;;;;;;;;;;5097575;28;20197;-60
2023/10/16 02:32:17;;;;;;;1.20;0.80;;;;;;;;;;5112233;28;20292;-61
2023/10/16 02:34:45;;;;;;;3.83;1.23;;;;;;;;;;5099009;28;20285;-60
2023/10/16 02:37:14;;;;;;;1.90;0.87;;;;;;;;;;5097904;28;20201;-60
2023/10/16 02:39:50;;;;;;;1.13;1.03;;;;;;;;;;5099037;28;20232;-60
2023/10/16 02:42:20;;;;;;;2.30;1.27;;;;;;;;;;5102771;28;20205;-62
2023/10/16 02:44:49;;;;;;;1.40;1.20;;;;;;;;;;5117195;28;20254;-61
2023/10/16 02:47:25;;;;;;;3.00;1.00;;;;;;;;;;5117409;28;20201;-60
2023/10/16 02:49:56;;;;;;;2.13;1.30;;;;;;;;;;5117299;28;20559;-62
2023/10/16 02:52:25;;;;;;;0.63;0.63;;;;;;;;;;5109747;28;20293;-60
2023/10/16 02:54:56;;;;;;;4.50;1.10;;;;;;;;;;5096958;28;20259;-60
2023/10/16 02:57:27;;;;;;;1.73;1.10;;;;;;;;;;5100929;28;20672;-62
2023/10/16 02:59:56;;;;;;;1.37;0.80;;;;;;;;;;5105688;28;20309;-62
2023/10/16 03:02:27;;;;;;;4.73;0.77;;;;;;;;;;5097535;28;20205;-62
2023/10/16 03:05:09;;;;;;;0.97;0.87;;;;;;;;;;5097800;28;20523;-61
2023/10/16 03:07:39;;;;;;;2.13;1.63;;;;;;;;;;5097079;28;20324;-62
2023/10/16 03:10:08;;;;;;;1.10;0.70;;;;;;;;;;5097360;28;20236;-62
2023/10/16 03:12:38;;;;;;;2.97;0.87;;;;;;;;;;5100660;28;20288;-62
2023/10/16 03:15:15;;;;;;;1.67;0.80;;;;;;;;;;5119105;28;20729;-62
2023/10/16 03:17:43;;;;;;;2.53;1.00;;;;;;;;;;5107291;28;20287;-62
2023/10/16 03:20:19;;;;;;;3.20;1.00;;;;;;;;;;5098328;28;20237;-62
2023/10/16 03:22:48;;;;;;;0.87;0.80;;;;;;;;;;5115239;28;20200;-62
2023/10/16 03:25:27;;;;;;;0.80;0.80;;;;;;;;;;5103673;28;20201;-62
2023/10/16 03:27:57;;;;;;;1.73;0.90;;;;;;;;;;5101139;28;20597;-62
2023/10/16 03:30:27;;;;;;;1.17;0.90;;;;;;;;;;5109902;28;20223;-62
2023/10/16 03:32:55;;;;;;;1.40;0.87;;;;;;;;;;5121203;28;20201;-61
2023/10/16 03:35:26;;;;;;;2.80;1.03;;;;;;;;;;5120975;27;20201;-61
2023/10/16 03:37:54;;;;;;;0.87;0.87;;;;;;;;;;5114718;28;20279;-61
2023/10/16 03:40:24;;;;;;;9.03;1.07;;;;;;;;;;5107810;28;20225;-61
2023/10/16 03:42:53;;;;;;;1.80;0.93;;;;;;;;;;5106125;28;20209;-60
2023/10/16 03:45:23;;;;;;;1.03;0.97;;;;;;;;;;5122067;28;20211;-60
2023/10/16 03:47:53;;;;;;;1.33;0.87;;;;;;;;;;5105151;28;20276;-61
2023/10/16 03:50:25;;;;;;;1.13;0.93;;;;;;;;;;5126284;27;20216;-60
2023/10/16 03:52:55;;;;;;;1.50;1.10;;;;;;;;;;5127328;27;20207;-61
2023/10/16 03:55:26;;;;;;;1.67;1.00;;;;;;;;;;5124602;27;20212;-62
2023/10/16 03:57:55;;;;;;;1.53;1.10;;;;;;;;;;5126665;27;20193;-60
2023/10/16 04:00:27;;;;;;;1.23;1.13;;;;;;;;;;5129382;27;20225;-60
2023/10/16 04:02:59;;;;;;;3.27;1.43;;;;;;;;;;5126338;27;20192;-61
2023/10/16 04:05:45;;;;;;;1.47;0.97;;;;;;;;;;5124677;27;20202;-61
2023/10/16 04:08:14;;;;;;;1.37;0.90;;;;;;;;;;5128286;27;20239;-62
2023/10/16 04:10:46;;;;;;;1.13;0.67;;;;;;;;;;5132233;27;20295;-61
2023/10/16 04:13:18;;;;;;;2.57;0.90;;;;;;;;;;5127439;27;20225;-62
2023/10/16 04:18:33;;;;;;;0.70;0.70;;;;;;;;;;5124252;27;20284;-62
2023/10/16 04:23:58;;;;;;;1.93;1.00;;;;;;;;;;5129762;27;20200;-61
2023/10/16 04:26:47;;;;;;;2.33;1.10;;;;;;;;;;5129118;27;20224;-62
2023/10/16 04:29:33;;;;;;;1.87;1.10;;;;;;;;;;5125143;27;20193;-61
2023/10/16 04:32:19;;;;;;;3.87;1.23;;;;;;;;;;5120159;27;20225;-61
2023/10/16 04:34:53;;;;;;;1.00;1.00;;;;;;;;;;5127624;27;20193;-61
2023/10/16 04:37:29;;;;;;;1.47;1.37;;;;;;;;;;5126161;27;20199;-61
2023/10/16 04:45:39;;;;;;;1.30;1.07;;;;;;;;;;5126783;27;20264;-61
2023/10/16 04:48:23;;;;;;;1.20;1.20;;;;;;;;;;5124711;27;20678;-61
2023/10/16 04:51:09;;;;;;;1.87;1.00;;;;;;;;;;5125793;27;20703;-61
2023/10/16 04:54:13;;;;;;;1.43;1.10;;;;;;;;;;5123905;27;20193;-62
2023/10/16 04:57:37;;;;;;;1.03;1.00;;;;;;;;;;5106554;28;20202;-61
2023/10/16 05:00:12;;;;;;;1.30;1.20;;;;;;;;;;5107772;28;20324;-61
2023/10/16 05:02:52;;;;;;;1.63;1.03;;;;;;;;;;5098930;28;20657;-61
2023/10/16 05:05:45;;;;;;;2.03;0.73;;;;;;;;;;5099324;28;20204;-61
2023/10/16 05:13:54;;;;;;;1.10;0.90;;;;;;;;;;5107470;28;20210;-62
2023/10/16 05:16:30;;;;;;;1.17;0.70;;;;;;;;;;5102653;28;20655;-62
2023/10/16 05:19:15;;;;;;;2.37;0.93;;;;;;;;;;5119085;28;20713;-61
2023/10/16 05:22:03;;;;;;;2.43;1.03;;;;;;;;;;5106617;28;20233;-61
2023/10/16 06:14:18;;;;;;;1.50;1.40;;;;;;;;;;5101086;27;20204;-65
2023/10/16 06:16:47;;;;;;;1.13;0.80;;;;;;;;;;5125914;27;20202;-63
2023/10/16 06:19:18;;;;;;;4.60;1.60;;;;;;;;;;5110873;28;20205;-63
2023/10/16 06:21:47;;;;;;;1.13;1.03;;;;;;;;;;5111019;28;20217;-64
2023/10/16 06:24:28;;;;;;;1.20;1.10;;;;;;;;;;5102533;28;20201;-64
2023/10/16 06:26:59;;;;;;;4.17;1.40;;;;;;;;;;5097817;28;20292;-64
2023/10/16 06:29:34;;;;;;;2.17;1.20;;;;;;;;;;5098046;28;20216;-64
2023/10/16 06:32:07;;;;;;;5.60;1.53;;;;;;;;;;5097680;28;20230;-63
2023/10/16 06:34:36;;;;;;;1.47;1.27;;;;;;;;;;5098470;28;20201;-63
2023/10/16 06:37:06;;;;;;;1.37;1.10;;;;;;;;;;5096343;28;20205;-62
2023/10/16 06:39:36;;;;;;;6.03;1.47;;;;;;;;;;5106718;28;20228;-62
2023/10/16 06:42:11;;;;;;;1.37;1.20;;;;;;;;;;5097867;28;20228;-64
2023/10/16 06:44:42;;;;;;;0.90;0.87;;;;;;;;;;5119232;27;20279;-64
2023/10/16 06:47:12;;;;;;;2.13;1.27;;;;;;;;;;5108562;28;20201;-63
2023/10/16 06:49:40;;;;;;;1.70;1.13;;;;;;;;;;5111113;28;20200;-63
2023/10/16 06:52:12;;;;;;;2.70;1.20;;;;;;;;;;5109331;28;20325;-64
2023/10/16 06:54:41;;;;;;;3.40;1.30;;;;;;;;;;5117019;28;20209;-64
2023/10/16 06:57:12;;;;;;;2.87;1.27;;;;;;;;;;5104244;28;20198;-63
2023/10/16 06:59:40;;;;;;;1.10;1.10;;;;;;;;;;5098394;28;20661;-64
2023/10/16 07:02:10;;;;;;;2.97;1.03;;;;;;;;;;5098114;28;20664;-63
2023/10/16 07:04:42;;;;;;;4.03;1.00;;;;;;;;;;5097747;28;20714;-61
2023/10/16 07:07:14;;;;;;;1.87;1.30;;;;;;;;;;5099746;28;20205;-62
2023/10/16 07:09:48;;;;;;;2.73;1.13;;;;;;;;;;5107857;28;20212;-62
2023/10/16 07:12:18;;;;;;;1.47;1.27;;;;;;;;;;5096345;28;20228;-61
2023/10/16 07:14:55;;;;;;;2.20;1.20;;;;;;;;;;5100240;28;20198;-61
2023/10/16 07:17:24;;;;;;;2.13;1.20;;;;;;;;;;5097915;28;20211;-61
2023/10/16 07:19:58;;;;;;;1.60;1.20;;;;;;;;;;5097318;28;20305;-61
2023/10/16 07:22:31;;;;;;;2.23;1.43;;;;;;;;;;5100223;28;20240;-62
2023/10/16 07:25:10;;;;;;;1.77;1.10;;;;;;;;;;5097854;28;20206;-62
2023/10/16 07:27:39;;;;;;;6.63;1.40;;;;;;;;;;5114099;28;20269;-61
2023/10/16 07:30:21;;;;;;;2.73;1.17;;;;;;;;;;5117728;28;20225;-62
2023/10/16 07:32:50;;;;;;;4.30;1.60;;;;;;;;;;5109983;28;20203;-62
2023/10/16 07:35:18;;;;;;;2.03;1.37;;;;;;;;;;5117684;28;20205;-62
2023/10/16 07:37:48;;;;;;;1.33;1.23;;;;;;;;;;5117865;28;20269;-61
2023/10/16 07:40:19;;;;;;;5.27;1.33;;;;;;;;;;5117757;28;20304;-62
2023/10/16 07:42:52;;;;;;;2.70;1.23;;;;;;;;;;5111884;28;20201;-62
2023/10/16 07:45:21;;;;;;;2.03;1.17;;;;;;;;;;5096358;28;20672;-62
2023/10/16 07:47:51;;;;;;;2.90;1.30;;;;;;;;;;5097053;28;20243;-61
2023/10/16 07:50:19;;;;;;;1.33;1.23;;;;;;;;;;5097067;28;20221;-61
2023/10/16 07:52:48;;;;;;;1.77;1.37;;;;;;;;;;5096276;28;20248;-61
2023/10/16 07:55:19;;;;;;;2.83;1.73;;;;;;;;;;5106312;28;20201;-62
2023/10/16 07:57:47;;;;;;;2.97;1.40;;;;;;;;;;5098672;28;20217;-62
2023/10/16 08:00:25;;;;;;;4.40;1.40;;;;;;;;;;5122248;27;20640;-62
2023/10/16 08:03:04;;;;;;;2.97;1.57;;;;;;;;;;5104948;28;20224;-62
2023/10/16 08:05:34;;;;;;;2.90;1.13;;;;;;;;;;5101894;28;20208;-61
2023/10/16 08:08:11;;;;;;;4.10;1.47;;;;;;;;;;5105382;28;20225;-61
2023/10/16 08:10:42;;;;;;;6.03;1.60;;;;;;;;;;5115741;28;20322;-61
2023/10/16 08:13:13;;;;;;;1.60;1.37;;;;;;;;;;5105845;28;20206;-62
2023/10/16 08:15:49;;;;;;;2.03;1.23;;;;;;;;;;5113194;28;20283;-61
2023/10/16 08:18:18;;;;;;;2.97;1.17;;;;;;;;;;5116169;28;20287;-61
2023/10/16 08:23:38;;;;;;;3.43;1.20;;;;;;;;;;5098823;28;20216;-60
2023/10/16 08:26:14;;;;;;;3.23;1.97;;;;;;;;;;5100571;28;20292;-60
2023/10/16 08:28:45;;;;;;;1.63;1.23;;;;;;;;;;5100653;28;20209;-62
2023/10/16 08:31:31;;;;;;;2.03;1.37;;;;;;;;;;5100381;28;20229;-61
2023/10/16 08:34:00;;;;;;;9.50;5.77;;;;;;;;;;5114805;27;20205;-64
2023/10/16 08:36:29;;;;;;;7.93;5.00;;;;;;;;;;5116642;27;20206;-65
2023/10/16 08:39:07;;;;;;;13.40;7.40;;;;;;;;;;5100269;28;20679;-65
2023/10/16 08:41:44;;;;;;;11.27;6.07;;;;;;;;;;5107543;28;20267;-64
2023/10/16 08:44:17;;;;;;;7.57;2.37;;;;;;;;;;5100035;28;20256;-65
2023/10/16 08:47:11;;;;;;;7.03;3.70;;;;;;;;;;5102901;28;20201;-64
2023/10/16 08:49:35;;;;;;;5.03;3.33;;;;;;;;;;5099963;28;20206;-64
2023/10/16 08:52:23;;;;;;;6.50;4.00;;;;;;;;;;5114821;28;20744;-65
2023/10/16 08:55:14;;;;;;;7.07;4.10;;;;;;;;;;5106936;28;20292;-64
2023/10/16 08:57:43;;;;;;;1.97;1.67;;;;;;;;;;5100197;28;20209;-62
2023/10/16 09:00:19;;;;;;;5.87;1.50;;;;;;;;;;5107904;28;20293;-62
2023/10/16 09:02:51;;;;;;;8.47;1.77;;;;;;;;;;5109338;28;20200;-61
2023/10/16 09:05:20;;;;;;;4.37;1.20;;;;;;;;;;5103171;27;20603;-60
2023/10/16 09:07:49;;;;;;;3.10;1.67;;;;;;;;;;5100816;28;20237;-62
2023/10/16 09:10:21;;;;;;;4.83;1.50;;;;;;;;;;5115959;27;20270;-61
2023/10/16 09:12:55;;;;;;;2.23;1.53;;;;;;;;;;5099385;28;20233;-62
2023/10/16 09:15:24;;;;;;;1.53;1.40;;;;;;;;;;5106532;28;20227;-62
2023/10/16 09:17:56;;;;;;;4.97;1.43;;;;;;;;;;5096991;28;20641;-61
2023/10/16 09:20:33;;;;;;;4.07;1.43;;;;;;;;;;5099739;28;20233;-62
2023/10/16 09:23:02;;;;;;;3.53;1.50;;;;;;;;;;5099513;28;20240;-62
2023/10/16 09:25:31;;;;;;;1.67;1.40;;;;;;;;;;5106840;28;20236;-62
2023/10/16 09:28:06;;;;;;;4.57;1.60;;;;;;;;;;5109118;28;20740;-62
2023/10/16 09:30:34;;;;;;;1.93;1.50;;;;;;;;;;5098778;28;20304;-61
2023/10/16 09:33:06;;;;;;;5.83;1.90;;;;;;;;;;5099457;28;20229;-63
2023/10/16 09:35:37;;;;;;;2.97;1.67;;;;;;;;;;5111679;28;20197;-62
2023/10/16 09:38:17;;;;;;;3.87;1.47;;;;;;;;;;5099181;28;20205;-62
2023/10/16 09:41:21;;;;;;;1.20;1.10;;;;;;;;;;5099884;28;20225;-62
2023/10/16 09:43:48;;;;;;;2.17;1.40;;;;;;;;;;5116847;28;20291;-63
2023/10/16 09:46:48;;;;;;;4.30;1.63;;;;;;;;;;5119395;28;20209;-62
2023/10/16 09:49:21;;;;;;;1.60;1.50;;;;;;;;;;5111087;28;20205;-62
2023/10/16 09:51:49;;;;;;;1.83;1.70;;;;;;;;;;5102623;28;20220;-62
2023/10/16 09:54:34;;;;;;;3.40;1.47;;;;;;;;;;5112291;28;20208;-62
2023/10/16 09:57:06;;;;;;;3.87;1.40;;;;;;;;;;5102548;28;20264;-63
2023/10/16 09:59:38;;;;;;;3.53;1.40;;;;;;;;;;5102085;28;20240;-62
2023/10/16 10:02:08;;;;;;;7.90;1.93;;;;;;;;;;5098667;28;20262;-62
2023/10/16 10:04:39;;;;;;;2.63;1.60;;;;;;;;;;5110449;27;20210;-63
2023/10/16 10:07:19;;;;;;;3.37;1.60;;;;;;;;;;5098635;28;20216;-63
2023/10/16 10:09:48;;;;;;;2.57;1.87;;;;;;;;;;5098521;28;20259;-62
2023/10/16 10:12:23;;;;;;;10.00;1.90;;;;;;;;;;5098101;28;20580;-62
2023/10/16 10:15:01;;;;;;;4.00;1.63;;;;;;;;;;5105349;28;20624;-63
2023/10/16 10:17:31;;;;;;;4.47;1.63;;;;;;;;;;5107903;28;20205;-63
2023/10/16 10:20:08;;;;;;;2.53;1.50;;;;;;;;;;5113571;28;20235;-62
2023/10/16 10:22:38;;;;;;;6.30;1.93;;;;;;;;;;5113520;28;20200;-62
2023/10/16 10:25:11;;;;;;;3.40;2.10;;;;;;;;;;5098072;28;20296;-63
2023/10/16 10:27:47;;;;;;;2.07;1.77;;;;;;;;;;5099571;28;20237;-61
2023/10/16 10:30:17;;;;;;;3.17;1.70;;;;;;;;;;5097652;28;20218;-61
2023/10/16 10:32:52;;;;;;;4.63;1.73;;;;;;;;;;5098216;28;20620;-63
2023/10/16 10:35:26;;;;;;;5.47;1.77;;;;;;;;;;5101623;28;20642;-60
2023/10/16 10:38:07;;;;;;;4.17;2.40;;;;;;;;;;5098260;28;20208;-65
2023/10/16 10:40:35;;;;;;;4.20;2.43;;;;;;;;;;5103734;28;20236;-64
2023/10/16 10:43:04;;;;;;;3.50;2.10;;;;;;;;;;5097906;28;20198;-66
2023/10/16 10:45:35;;;;;;;2.00;1.67;;;;;;;;;;5097930;28;20216;-65
2023/10/16 10:48:06;;;;;;;3.00;1.90;;;;;;;;;;5098173;28;20213;-65
2023/10/16 10:50:38;;;;;;;2.43;1.53;;;;;;;;;;5105867;28;20282;-66
2023/10/16 10:53:14;;;;;;;8.03;2.80;;;;;;;;;;5110984;28;20312;-65
2023/10/16 10:55:58;;;;;;;4.70;1.50;;;;;;;;;;5097959;28;20197;-66
2023/10/16 10:58:31;;;;;;;2.87;1.60;;;;;;;;;;5112281;28;20283;-64
2023/10/16 11:01:16;;;;;;;9.83;1.87;;;;;;;;;;5109642;28;20232;-63
2023/10/16 11:03:46;;;;;;;11.77;1.87;;;;;;;;;;5102192;28;20235;-63
2023/10/16 11:06:19;;;;;;;3.30;1.63;;;;;;;;;;5110269;28;20209;-63
2023/10/16 11:08:48;;;;;;;3.60;1.93;;;;;;;;;;5097844;28;20241;-62
2023/10/16 11:11:17;;;;;;;3.77;1.40;;;;;;;;;;5105285;28;21242;-63
2023/10/16 11:13:45;;;;;;;1.90;1.30;;;;;;;;;;5092273;28;20304;-63
2023/10/16 11:16:14;;;;;;;1.53;1.20;;;;;;;;;;5098804;28;20202;-63
2023/10/16 11:18:43;;;;;;;3.23;1.60;;;;;;;;;;5097325;28;20197;-61
2023/10/16 11:21:13;;;;;;;2.50;1.73;;;;;;;;;;5097421;28;20217;-62
2023/10/16 11:23:42;;;;;;;10.47;2.57;;;;;;;;;;5097301;28;20229;-61
2023/10/16 11:26:13;;;;;;;6.20;1.60;;;;;;;;;;5117625;28;20729;-63
2023/10/16 11:28:48;;;;;;;1.67;1.33;;;;;;;;;;5097428;28;20714;-63
2023/10/16 11:31:18;;;;;;;5.00;1.60;;;;;;;;;;5097557;28;20229;-63
2023/10/16 11:34:02;;;;;;;4.57;1.20;;;;;;;;;;5097488;28;20220;-62
2023/10/16 11:36:33;;;;;;;2.03;1.47;;;;;;;;;;5097296;28;20208;-61
2023/10/16 11:39:19;;;;;;;1.47;1.37;;;;;;;;;;5097175;28;20212;-62
2023/10/16 11:41:49;;;;;;;2.70;2.10;;;;;;;;;;5107615;28;20221;-61
2023/10/16 11:44:17;;;;;;;3.70;1.40;;;;;;;;;;5109658;28;20284;-62
2023/10/16 11:46:46;;;;;;;3.03;1.53;;;;;;;;;;5112768;28;20201;-62
2023/10/16 11:49:35;;;;;;;4.67;1.63;;;;;;;;;;5101631;28;20676;-62
2023/10/16 11:52:19;;;;;;;3.10;1.60;;;;;;;;;;5101303;28;20228;-61
2023/10/16 11:54:53;;;;;;;2.80;1.37;;;;;;;;;;5101048;28;20237;-61
2023/10/16 11:57:21;;;;;;;4.93;1.50;;;;;;;;;;5114378;27;20204;-61
2023/10/16 11:59:51;;;;;;;2.03;1.17;;;;;;;;;;5118774;28;20244;-61
2023/10/16 12:02:21;;;;;;;2.83;1.50;;;;;;;;;;5118485;28;20209;-63
2023/10/16 12:04:49;;;;;;;3.03;1.60;;;;;;;;;;5121623;28;20204;-63
2023/10/16 12:07:18;;;;;;;2.10;1.40;;;;;;;;;;5121416;28;20211;-63
2023/10/16 12:09:51;;;;;;;2.40;1.50;;;;;;;;;;5118266;28;20205;-62
2023/10/16 12:12:22;;;;;;;1.97;1.50;;;;;;;;;;5100818;28;20672;-61
2023/10/16 12:14:51;;;;;;;2.80;1.47;;;;;;;;;;5100776;28;20232;-62
2023/10/16 12:17:20;;;;;;;7.83;2.23;;;;;;;;;;5101204;28;20217;-61
2023/10/16 12:19:51;;;;;;;6.20;2.10;;;;;;;;;;5121309;28;20254;-61
2023/10/16 12:22:21;;;;;;;2.53;1.77;;;;;;;;;;5118093;28;20695;-61
2023/10/16 12:24:50;;;;;;;4.03;1.50;;;;;;;;;;5100352;28;20255;-61
2023/10/16 12:27:18;;;;;;;3.70;1.77;;;;;;;;;;5100242;28;20210;-61
2023/10/16 12:29:47;;;;;;;2.57;1.10;;;;;;;;;;5128598;27;20235;-62
2023/10/16 12:32:15;;;;;;;3.73;1.70;;;;;;;;;;5105918;28;20288;-63
2023/10/16 12:34:43;;;;;;;3.23;1.30;;;;;;;;;;5116609;28;20232;-62
2023/10/16 12:37:11;;;;;;;3.83;1.30;;;;;;;;;;5100719;28;20243;-62
2023/10/16 12:39:46;;;;;;;3.73;1.57;;;;;;;;;;5101660;28;20244;-62
2023/10/16 12:42:15;;;;;;;3.13;1.33;;;;;;;;;;5105310;28;20244;-62
2023/10/16 12:44:44;;;;;;;3.47;1.20;;;;;;;;;;5100572;28;20728;-63
2023/10/16 12:47:14;;;;;;;3.60;1.50;;;;;;;;;;5103282;28;20193;-62
2023/10/16 12:50:04;;;;;;;4.83;1.57;;;;;;;;;;5107858;28;20221;-62
2023/10/16 12:52:34;;;;;;;4.40;1.40;;;;;;;;;;5110498;28;20238;-62
2023/10/16 12:55:02;;;;;;;1.63;1.27;;;;;;;;;;5120618;28;20225;-62
2023/10/16 12:57:30;;;;;;;2.73;1.50;;;;;;;;;;5120078;28;20262;-62
2023/10/16 12:59:58;;;;;;;3.03;1.27;;;;;;;;;;5112316;27;20228;-62
2023/10/16 13:02:27;;;;;;;4.20;1.60;;;;;;;;;;5100005;28;20269;-62
2023/10/16 13:04:57;;;;;;;2.37;1.30;;;;;;;;;;5100073;28;20231;-62
2023/10/16 13:07:26;;;;;;;1.50;1.07;;;;;;;;;;5114713;28;20215;-61
2023/10/16 13:10:10;;;;;;;2.10;1.20;;;;;;;;;;5110040;28;20679;-63
2023/10/16 13:12:39;;;;;;;2.37;1.17;;;;;;;;;;5120141;28;20240;-61
2023/10/16 13:15:09;;;;;;;2.73;1.20;;;;;;;;;;5120238;28;20229;-62
2023/10/16 13:17:39;;;;;;;2.87;1.50;;;;;;;;;;5101655;28;20237;-62
2023/10/16 13:20:13;;;;;;;4.47;1.70;;;;;;;;;;5094057;28;20217;-62
2023/10/16 13:22:41;;;;;;;2.40;1.47;;;;;;;;;;5102578;28;20671;-61
2023/10/16 13:25:12;;;;;;;3.37;1.90;;;;;;;;;;5119919;28;20207;-62
2023/10/16 13:27:40;;;;;;;1.50;1.40;;;;;;;;;;5099885;28;20198;-61
2023/10/16 13:30:11;;;;;;;2.07;1.13;;;;;;;;;;5099457;28;20233;-61
2023/10/16 13:32:41;;;;;;;1.53;1.20;;;;;;;;;;5099809;28;20671;-62
2023/10/16 13:35:12;;;;;;;2.50;1.53;;;;;;;;;;5099382;28;20229;-62
2023/10/16 13:37:42;;;;;;;5.67;1.17;;;;;;;;;;5099438;28;20292;-62
2023/10/16 13:40:20;;;;;;;2.53;1.30;;;;;;;;;;5103814;28;20719;-61
2023/10/16 13:42:49;;;;;;;4.07;1.90;;;;;;;;;;5114579;28;20216;-62
2023/10/16 13:45:18;;;;;;;1.33;1.20;;;;;;;;;;5099005;28;21006;-62
2023/10/16 13:47:47;;;;;;;2.10;1.50;;;;;;;;;;5098935;28;20295;-61
2023/10/16 13:50:16;;;;;;;2.27;1.20;;;;;;;;;;5101810;28;20314;-63
2023/10/16 13:52:44;;;;;;;6.80;1.50;;;;;;;;;;5098788;28;20212;-61
2023/10/16 13:55:19;;;;;;;3.00;1.37;;;;;;;;;;5098893;28;20225;-62
2023/10/16 13:57:47;;;;;;;2.30;1.37;;;;;;;;;;5108072;28;20244;-61
2023/10/16 14:00:28;;;;;;;2.33;1.37;;;;;;;;;;5118157;28;20234;-61
2023/10/16 14:02:58;;;;;;;3.13;1.20;;;;;;;;;;5119271;28;20215;-61
2023/10/16 14:05:28;;;;;;;2.50;1.23;;;;;;;;;;5118660;28;20196;-61
2023/10/16 14:07:56;;;;;;;2.97;1.20;;;;;;;;;;5119043;28;20236;-61
2023/10/16 14:10:24;;;;;;;3.03;1.37;;;;;;;;;;5100441;28;20233;-62
2023/10/16 14:12:58;;;;;;;3.23;1.50;;;;;;;;;;5098410;28;20233;-61
2023/10/16 14:15:32;;;;;;;1.63;1.30;;;;;;;;;;5113243;28;20234;-61
2023/10/16 14:18:02;;;;;;;5.10;1.40;;;;;;;;;;5113280;28;20269;-61
2023/10/16 14:20:37;;;;;;;2.43;1.50;;;;;;;;;;5118814;28;20688;-61
2023/10/16 14:23:10;;;;;;;3.47;1.20;;;;;;;;;;5118554;28;20565;-61
2023/10/16 14:25:45;;;;;;;2.97;1.47;;;;;;;;;;5118531;28;20200;-61
2023/10/16 14:28:25;;;;;;;1.83;1.50;;;;;;;;;;5118564;28;20205;-61
2023/10/16 14:30:56;;;;;;;2.93;1.23;;;;;;;;;;5115922;28;20229;-62
2023/10/16 14:33:28;;;;;;;6.03;1.80;;;;;;;;;;5097843;28;20296;-63
2023/10/16 14:35:57;;;;;;;3.93;1.40;;;;;;;;;;5091861;28;20772;-61
2023/10/16 14:38:25;;;;;;;3.23;1.20;;;;;;;;;;5091710;28;20221;-62
2023/10/16 14:40:55;;;;;;;4.03;1.27;;;;;;;;;;5092428;28;20274;-63
2023/10/16 14:43:23;;;;;;;2.73;1.60;;;;;;;;;;5094073;28;20197;-63
2023/10/16 14:45:53;;;;;;;4.67;1.40;;;;;;;;;;5092644;28;20190;-64
2023/10/16 14:48:22;;;;;;;1.97;1.30;;;;;;;;;;5091460;28;20206;-61
2023/10/16 14:50:54;;;;;;;3.70;1.20;;;;;;;;;;5096424;28;21107;-62
2023/10/16 14:53:25;;;;;;;2.53;1.10;;;;;;;;;;5092102;28;20202;-63
2023/10/16 14:55:56;;;;;;;4.63;1.47;;;;;;;;;;5091142;28;20241;-62
2023/10/16 14:58:24;;;;;;;3.17;1.40;;;;;;;;;;5095573;28;20236;-62
2023/10/16 15:01:16;;;;;;;5.20;1.63;;;;;;;;;;5107988;28;20225;-62
2023/10/16 15:03:44;;;;;;;7.33;1.60;;;;;;;;;;5092575;28;20197;-61
2023/10/16 15:06:15;;;;;;;4.43;1.70;;;;;;;;;;5094321;28;20557;-61
2023/10/16 15:08:44;;;;;;;3.93;1.30;;;;;;;;;;5092104;28;20229;-61
2023/10/16 15:11:12;;;;;;;2.33;1.47;;;;;;;;;;5094060;28;20724;-61
2023/10/16 15:13:42;;;;;;;6.17;1.40;;;;;;;;;;5091656;28;20212;-62
2023/10/16 15:16:10;;;;;;;2.97;1.40;;;;;;;;;;5097730;28;20236;-63
2023/10/16 15:18:39;;;;;;;7.57;1.50;;;;;;;;;;5100244;28;20229;-61
2023/10/16 15:21:07;;;;;;;2.63;1.43;;;;;;;;;;5098983;28;20235;-61
2023/10/16 15:23:37;;;;;;;3.83;1.40;;;;;;;;;;5098506;28;20197;-61
2023/10/16 15:26:06;;;;;;;4.57;1.60;;;;;;;;;;5099322;28;20231;-62
2023/10/16 15:28:35;;;;;;;4.53;1.27;;;;;;;;;;5098661;28;20656;-62
2023/10/16 15:31:13;;;;;;;6.77;1.50;;;;;;;;;;5097384;28;20637;-61
2023/10/16 15:33:43;;;;;;;5.63;2.17;;;;;;;;;;5098084;27;20265;-61
2023/10/16 15:36:12;;;;;;;4.03;1.70;;;;;;;;;;5102228;28;20225;-62
2023/10/16 15:38:43;;;;;;;7.80;1.60;;;;;;;;;;5099138;28;20209;-62
2023/10/16 15:41:12;;;;;;;4.90;1.60;;;;;;;;;;5100747;28;20288;-62
2023/10/16 15:43:42;;;;;;;3.80;2.00;;;;;;;;;;5101683;28;20613;-62
2023/10/16 15:46:25;;;;;;;4.17;1.63;;;;;;;;;;5098970;28;20246;-63
2023/10/16 15:48:55;;;;;;;3.43;1.50;;;;;;;;;;5100275;28;20205;-64
2023/10/16 15:51:23;;;;;;;5.70;1.70;;;;;;;;;;5104277;27;20341;-64
2023/10/16 15:53:53;;;;;;;3.53;1.70;;;;;;;;;;5097730;28;21903;-63
2023/10/16 15:56:23;;;;;;;3.73;1.30;;;;;;;;;;5099334;28;20278;-63
2023/10/16 15:58:51;;;;;;;4.33;1.47;;;;;;;;;;5097885;28;20193;-63
2023/10/16 16:01:19;;;;;;;2.00;1.17;;;;;;;;;;5099784;28;20245;-63
2023/10/16 16:03:48;;;;;;;3.30;1.40;;;;;;;;;;5098410;28;20546;-64
2023/10/16 16:06:17;;;;;;;3.03;1.37;;;;;;;;;;5102549;28;20217;-63
2023/10/16 16:08:46;;;;;;;5.97;1.90;;;;;;;;;;5113298;28;20294;-63
2023/10/16 16:11:19;;;;;;;1.30;1.00;;;;;;;;;;5124274;27;20228;-63
2023/10/16 16:13:48;;;;;;;3.30;1.57;;;;;;;;;;5115733;27;20211;-63
2023/10/16 16:16:15;;;;;;;4.50;1.73;;;;;;;;;;5115431;27;20307;-63
2023/10/16 16:18:45;;;;;;;2.83;1.40;;;;;;;;;;5117462;27;20235;-63
2023/10/16 16:21:16;;;;;;;3.40;1.43;;;;;;;;;;5103923;28;20237;-63
2023/10/16 16:23:44;;;;;;;3.20;1.30;;;;;;;;;;5103592;28;20209;-63
2023/10/16 16:26:13;;;;;;;4.53;2.70;;;;;;;;;;5103216;28;20294;-63